sensor_id;sensor_type;location;lat;lon;timestamp;pressure;altitude;pressure_sealevel;temperature;humidity
66090;BME280;53113;45.602;11.904;2022-08-19T00:01:40;100582.79;;;21.75;71.26
66090;BME280;53113;45.602;11.904;2022-08-19T00:04:09;100597.29;;;21.74;71.22
66090;BME280;53113;45.602;11.904;2022-08-19T00:06:37;100610.40;;;21.72;71.27
66090;BME280;53113;45.602;11.904;2022-08-19T00:09:06;100635.56;;;21.73;71.31
66090;BME280;53113;45.602;11.904;2022-08-19T00:11:32;100682.02;;;21.74;71.22
66090;BME280;53113;45.602;11.904;2022-08-19T00:14:04;100737.83;;;21.75;71.56
66090;BME280;53113;45.602;11.904;2022-08-19T00:16:31;100773.03;;;21.71;71.80
66090;BME280;53113;45.602;11.904;2022-08-19T00:18:57;100790.95;;;21.68;72.17
66090;BME280;53113;45.602;11.904;2022-08-19T00:21:25;100776.77;;;21.64;72.46
66090;BME280;53113;45.602;11.904;2022-08-19T00:23:53;100763.36;;;21.62;73.42
66090;BME280;53113;45.602;11.904;2022-08-19T00:26:20;100765.23;;;21.60;73.90
66090;BME280;53113;45.602;11.904;2022-08-19T00:28:46;100774.67;;;21.56;73.65
66090;BME280;53113;45.602;11.904;2022-08-19T00:31:12;100796.34;;;21.54;73.53
66090;BME280;53113;45.602;11.904;2022-08-19T00:33:38;100834.52;;;21.55;74.32
66090;BME280;53113;45.602;11.904;2022-08-19T00:36:07;100875.88;;;21.53;76.33
66090;BME280;53113;45.602;11.904;2022-08-19T00:38:35;100898.63;;;21.51;77.37
66090;BME280;53113;45.602;11.904;2022-08-19T00:41:02;100897.48;;;21.48;76.34
66090;BME280;53113;45.602;11.904;2022-08-19T00:43:28;100870.55;;;21.44;76.06
66090;BME280;53113;45.602;11.904;2022-08-19T00:45:55;100845.08;;;21.38;76.18
66090;BME280;53113;45.602;11.904;2022-08-19T00:48:21;100841.19;;;21.35;76.34
66090;BME280;53113;45.602;11.904;2022-08-19T00:50:50;100826.86;;;21.33;76.37
66090;BME280;53113;45.602;11.904;2022-08-19T00:53:21;100803.48;;;21.31;76.86
66090;BME280;53113;45.602;11.904;2022-08-19T00:55:50;100786.06;;;21.30;77.09
66090;BME280;53113;45.602;11.904;2022-08-19T00:58:18;100779.70;;;21.30;77.11
66090;BME280;53113;45.602;11.904;2022-08-19T01:00:45;100781.56;;;21.29;76.79
66090;BME280;53113;45.602;11.904;2022-08-19T01:03:15;100768.93;;;21.26;76.63
66090;BME280;53113;45.602;11.904;2022-08-19T01:05:43;100756.05;;;21.24;76.66
66090;BME280;53113;45.602;11.904;2022-08-19T01:08:10;100743.00;;;21.23;76.52
66090;BME280;53113;45.602;11.904;2022-08-19T01:10:41;100744.02;;;21.22;76.68
66090;BME280;53113;45.602;11.904;2022-08-19T01:13:08;100742.08;;;21.22;76.51
66090;BME280;53113;45.602;11.904;2022-08-19T01:15:40;100721.74;;;21.20;76.52
66090;BME280;53113;45.602;11.904;2022-08-19T01:18:10;100700.80;;;21.19;76.71
66090;BME280;53113;45.602;11.904;2022-08-19T01:20:38;100695.73;;;21.20;76.45
66090;BME280;53113;45.602;11.904;2022-08-19T01:23:04;100696.48;;;21.18;76.48
66090;BME280;53113;45.602;11.904;2022-08-19T01:25:46;100684.57;;;21.15;76.54
66090;BME280;53113;45.602;11.904;2022-08-19T01:28:29;100668.02;;;21.12;76.45
66090;BME280;53113;45.602;11.904;2022-08-19T01:30:55;100678.23;;;21.09;76.52
66090;BME280;53113;45.602;11.904;2022-08-19T01:33:21;100693.89;;;21.08;76.56
66090;BME280;53113;45.602;11.904;2022-08-19T01:35:47;100700.58;;;21.08;76.50
66090;BME280;53113;45.602;11.904;2022-08-19T01:38:24;100677.79;;;21.06;76.47
66090;BME280;53113;45.602;11.904;2022-08-19T01:40:51;100662.44;;;21.04;76.58
66090;BME280;53113;45.602;11.904;2022-08-19T01:43:18;100678.63;;;21.00;76.55
66090;BME280;53113;45.602;11.904;2022-08-19T01:45:45;100669.17;;;20.98;76.77
66090;BME280;53113;45.602;11.904;2022-08-19T01:48:12;100664.90;;;20.98;76.73
66090;BME280;53113;45.602;11.904;2022-08-19T01:50:39;100686.39;;;20.97;76.83
66090;BME280;53113;45.602;11.904;2022-08-19T01:53:09;100700.44;;;20.95;76.95
66090;BME280;53113;45.602;11.904;2022-08-19T01:55:37;100692.69;;;20.93;76.89
66090;BME280;53113;45.602;11.904;2022-08-19T01:58:04;100690.27;;;20.90;76.78
66090;BME280;53113;45.602;11.904;2022-08-19T02:00:32;100677.16;;;20.89;76.96
66090;BME280;53113;45.602;11.904;2022-08-19T02:02:58;100656.61;;;20.88;76.95
66090;BME280;53113;45.602;11.904;2022-08-19T02:05:27;100644.59;;;20.87;77.07
66090;BME280;53113;45.602;11.904;2022-08-19T02:07:56;100647.67;;;20.86;77.03
66090;BME280;53113;45.602;11.904;2022-08-19T02:10:22;100662.48;;;20.82;77.25
66090;BME280;53113;45.602;11.904;2022-08-19T02:12:49;100702.41;;;20.81;77.31
66090;BME280;53113;45.602;11.904;2022-08-19T02:15:18;100734.09;;;20.81;77.20
66090;BME280;53113;45.602;11.904;2022-08-19T02:17:46;100709.52;;;20.81;77.12
66090;BME280;53113;45.602;11.904;2022-08-19T02:20:13;100674.92;;;20.80;77.26
66090;BME280;53113;45.602;11.904;2022-08-19T02:22:40;100690.73;;;20.79;77.41
66090;BME280;53113;45.602;11.904;2022-08-19T02:25:10;100726.87;;;20.77;77.32
66090;BME280;53113;45.602;11.904;2022-08-19T02:27:37;100694.70;;;20.77;77.35
66090;BME280;53113;45.602;11.904;2022-08-19T02:30:05;100595.95;;;20.77;77.35
66090;BME280;53113;45.602;11.904;2022-08-19T02:32:32;100530.71;;;20.78;77.32
66090;BME280;53113;45.602;11.904;2022-08-19T02:34:58;100507.62;;;20.77;77.26
66090;BME280;53113;45.602;11.904;2022-08-19T02:37:24;100515.11;;;20.75;77.34
66090;BME280;53113;45.602;11.904;2022-08-19T02:40:09;100513.84;;;20.72;77.40
66090;BME280;53113;45.602;11.904;2022-08-19T02:42:35;100448.83;;;20.70;77.28
66090;BME280;53113;45.602;11.904;2022-08-19T02:45:02;100348.74;;;20.69;77.28
66090;BME280;53113;45.602;11.904;2022-08-19T02:47:28;100307.43;;;20.67;77.20
66090;BME280;53113;45.602;11.904;2022-08-19T02:49:54;100358.73;;;20.62;77.09
66090;BME280;53113;45.602;11.904;2022-08-19T02:52:20;100420.73;;;20.58;77.17
66090;BME280;53113;45.602;11.904;2022-08-19T02:54:45;100420.86;;;20.56;76.98
66090;BME280;53113;45.602;11.904;2022-08-19T02:57:11;100418.14;;;20.54;77.13
66090;BME280;53113;45.602;11.904;2022-08-19T02:59:37;100410.84;;;20.54;77.09
66090;BME280;53113;45.602;11.904;2022-08-19T03:02:03;100429.65;;;20.51;77.17
66090;BME280;53113;45.602;11.904;2022-08-19T03:04:29;100463.64;;;20.48;77.09
66090;BME280;53113;45.602;11.904;2022-08-19T03:06:55;100487.21;;;20.47;77.12
66090;BME280;53113;45.602;11.904;2022-08-19T03:09:21;100516.33;;;20.46;76.87
66090;BME280;53113;45.602;11.904;2022-08-19T03:11:47;100530.13;;;20.46;77.01
66090;BME280;53113;45.602;11.904;2022-08-19T03:14:13;100542.93;;;20.46;76.91
66090;BME280;53113;45.602;11.904;2022-08-19T03:16:42;100563.27;;;20.45;76.94
66090;BME280;53113;45.602;11.904;2022-08-19T03:19:09;100585.89;;;20.44;76.85
66090;BME280;53113;45.602;11.904;2022-08-19T03:21:35;100614.29;;;20.44;77.05
66090;BME280;53113;45.602;11.904;2022-08-19T03:24:04;100618.59;;;20.46;77.08
66090;BME280;53113;45.602;11.904;2022-08-19T03:26:31;100618.31;;;20.47;77.00
66090;BME280;53113;45.602;11.904;2022-08-19T03:29:01;100623.11;;;20.47;76.93
66090;BME280;53113;45.602;11.904;2022-08-19T03:31:27;100623.95;;;20.47;77.09
66090;BME280;53113;45.602;11.904;2022-08-19T03:33:53;100614.98;;;20.46;77.01
66090;BME280;53113;45.602;11.904;2022-08-19T03:36:22;100629.95;;;20.46;76.94
66090;BME280;53113;45.602;11.904;2022-08-19T03:38:52;100632.36;;;20.47;76.84
66090;BME280;53113;45.602;11.904;2022-08-19T03:41:32;100634.56;;;20.46;76.85
66090;BME280;53113;45.602;11.904;2022-08-19T03:43:58;100635.58;;;20.45;76.79
66090;BME280;53113;45.602;11.904;2022-08-19T03:46:29;100649.59;;;20.44;76.65
66090;BME280;53113;45.602;11.904;2022-08-19T03:48:58;100671.37;;;20.41;76.69
66090;BME280;53113;45.602;11.904;2022-08-19T03:51:26;100659.62;;;20.38;76.69
66090;BME280;53113;45.602;11.904;2022-08-19T03:53:54;100650.09;;;20.40;76.64
66090;BME280;53113;45.602;11.904;2022-08-19T03:56:21;100650.48;;;20.37;76.53
66090;BME280;53113;45.602;11.904;2022-08-19T03:58:48;100640.01;;;20.36;76.49
66090;BME280;53113;45.602;11.904;2022-08-19T04:01:17;100633.08;;;20.34;76.42
66090;BME280;53113;45.602;11.904;2022-08-19T04:03:44;100628.33;;;20.30;76.29
66090;BME280;53113;45.602;11.904;2022-08-19T04:08:44;100643.56;;;20.23;76.33
66090;BME280;53113;45.602;11.904;2022-08-19T04:11:13;100652.20;;;20.22;76.32
66090;BME280;53113;45.602;11.904;2022-08-19T04:13:40;100660.23;;;20.21;76.29
66090;BME280;53113;45.602;11.904;2022-08-19T04:16:09;100665.56;;;20.19;76.31
66090;BME280;53113;45.602;11.904;2022-08-19T04:18:37;100657.73;;;20.17;76.26
66090;BME280;53113;45.602;11.904;2022-08-19T04:21:05;100652.83;;;20.14;76.09
66090;BME280;53113;45.602;11.904;2022-08-19T04:23:32;100652.25;;;20.12;76.34
66090;BME280;53113;45.602;11.904;2022-08-19T04:25:58;100652.52;;;20.11;76.30
66090;BME280;53113;45.602;11.904;2022-08-19T04:28:25;100657.94;;;20.11;76.30
66090;BME280;53113;45.602;11.904;2022-08-19T04:30:54;100657.11;;;20.10;76.21
66090;BME280;53113;45.602;11.904;2022-08-19T04:33:23;100659.15;;;20.11;76.30
66090;BME280;53113;45.602;11.904;2022-08-19T04:35:50;100671.52;;;20.10;76.37
66090;BME280;53113;45.602;11.904;2022-08-19T04:38:19;100680.42;;;20.09;76.39
66090;BME280;53113;45.602;11.904;2022-08-19T04:40:49;100681.13;;;20.06;76.41
66090;BME280;53113;45.602;11.904;2022-08-19T04:43:36;100686.34;;;20.05;76.75
66090;BME280;53113;45.602;11.904;2022-08-19T04:46:09;100706.74;;;20.06;76.87
66090;BME280;53113;45.602;11.904;2022-08-19T04:48:37;100720.48;;;20.06;76.86
66090;BME280;53113;45.602;11.904;2022-08-19T04:51:07;100735.63;;;20.09;76.94
66090;BME280;53113;45.602;11.904;2022-08-19T04:53:35;100751.98;;;20.09;77.00
66090;BME280;53113;45.602;11.904;2022-08-19T04:56:11;100764.43;;;20.10;77.15
66090;BME280;53113;45.602;11.904;2022-08-19T04:58:40;100772.30;;;20.12;77.28
66090;BME280;53113;45.602;11.904;2022-08-19T05:01:23;100768.70;;;20.15;77.28
66090;BME280;53113;45.602;11.904;2022-08-19T05:03:49;100782.77;;;20.19;77.26
66090;BME280;53113;45.602;11.904;2022-08-19T05:06:17;100774.03;;;20.22;77.25
66090;BME280;53113;45.602;11.904;2022-08-19T05:08:45;100771.48;;;20.24;77.27
66090;BME280;53113;45.602;11.904;2022-08-19T05:11:20;100759.86;;;20.25;77.38
66090;BME280;53113;45.602;11.904;2022-08-19T05:13:47;100754.73;;;20.26;77.39
66090;BME280;53113;45.602;11.904;2022-08-19T05:16:16;100757.07;;;20.27;77.39
66090;BME280;53113;45.602;11.904;2022-08-19T05:18:43;100762.67;;;20.29;77.27
66090;BME280;53113;45.602;11.904;2022-08-19T05:21:28;100754.16;;;20.33;77.40
66090;BME280;53113;45.602;11.904;2022-08-19T05:24:14;100744.30;;;20.36;77.28
66090;BME280;53113;45.602;11.904;2022-08-19T05:26:43;100733.67;;;20.38;77.35
66090;BME280;53113;45.602;11.904;2022-08-19T05:29:14;100731.60;;;20.40;77.52
66090;BME280;53113;45.602;11.904;2022-08-19T05:31:41;100730.48;;;20.44;77.50
66090;BME280;53113;45.602;11.904;2022-08-19T05:34:08;100721.79;;;20.49;77.58
66090;BME280;53113;45.602;11.904;2022-08-19T05:36:38;100719.93;;;20.56;77.60
66090;BME280;53113;45.602;11.904;2022-08-19T05:39:08;100715.58;;;20.62;77.96
66090;BME280;53113;45.602;11.904;2022-08-19T05:41:34;100695.94;;;20.70;78.30
66090;BME280;53113;45.602;11.904;2022-08-19T05:44:05;100675.54;;;20.80;78.54
66090;BME280;53113;45.602;11.904;2022-08-19T05:46:35;100660.37;;;20.92;78.67
66090;BME280;53113;45.602;11.904;2022-08-19T05:49:04;100642.86;;;21.03;78.65
66090;BME280;53113;45.602;11.904;2022-08-19T05:51:32;100634.02;;;21.12;78.31
66090;BME280;53113;45.602;11.904;2022-08-19T05:54:01;100636.23;;;21.19;78.14
66090;BME280;53113;45.602;11.904;2022-08-19T05:56:27;100644.02;;;21.25;77.92
66090;BME280;53113;45.602;11.904;2022-08-19T05:58:55;100645.54;;;21.30;77.64
66090;BME280;53113;45.602;11.904;2022-08-19T06:01:21;100644.08;;;21.36;77.50
66090;BME280;53113;45.602;11.904;2022-08-19T06:03:46;100640.99;;;21.42;77.46
66090;BME280;53113;45.602;11.904;2022-08-19T06:06:16;100629.52;;;21.46;77.16
66090;BME280;53113;45.602;11.904;2022-08-19T06:08:44;100626.38;;;21.50;76.75
66090;BME280;53113;45.602;11.904;2022-08-19T06:11:43;100622.02;;;21.51;76.43
66090;BME280;53113;45.602;11.904;2022-08-19T06:14:13;100619.11;;;21.51;76.13
66090;BME280;53113;45.602;11.904;2022-08-19T06:16:41;100618.65;;;21.54;75.94
66090;BME280;53113;45.602;11.904;2022-08-19T06:19:11;100615.60;;;21.57;75.72
66090;BME280;53113;45.602;11.904;2022-08-19T06:21:39;100615.55;;;21.60;75.56
66090;BME280;53113;45.602;11.904;2022-08-19T06:24:08;100622.31;;;21.62;75.52
66090;BME280;53113;45.602;11.904;2022-08-19T06:26:36;100637.54;;;21.64;75.37
66090;BME280;53113;45.602;11.904;2022-08-19T06:29:06;100649.86;;;21.65;75.23
66090;BME280;53113;45.602;11.904;2022-08-19T06:31:34;100662.10;;;21.67;75.26
66090;BME280;53113;45.602;11.904;2022-08-19T06:34:05;100658.85;;;21.70;75.34
66090;BME280;53113;45.602;11.904;2022-08-19T06:36:36;100652.45;;;21.75;75.47
66090;BME280;53113;45.602;11.904;2022-08-19T06:39:08;100645.34;;;21.81;75.44
66090;BME280;53113;45.602;11.904;2022-08-19T06:41:40;100639.73;;;21.90;75.98
66090;BME280;53113;45.602;11.904;2022-08-19T06:44:07;100641.22;;;22.02;76.19
66090;BME280;53113;45.602;11.904;2022-08-19T06:46:33;100635.61;;;22.18;76.22
66090;BME280;53113;45.602;11.904;2022-08-19T06:49:00;100629.70;;;22.37;76.34
66090;BME280;53113;45.602;11.904;2022-08-19T06:51:25;100626.71;;;22.59;75.80
66090;BME280;53113;45.602;11.904;2022-08-19T06:53:53;100637.05;;;22.79;75.14
66090;BME280;53113;45.602;11.904;2022-08-19T06:56:24;100648.27;;;22.96;74.49
66090;BME280;53113;45.602;11.904;2022-08-19T06:58:51;100652.23;;;23.08;74.34
66090;BME280;53113;45.602;11.904;2022-08-19T07:01:19;100646.58;;;23.17;74.13
66090;BME280;53113;45.602;11.904;2022-08-19T07:03:45;100648.47;;;23.22;73.33
66090;BME280;53113;45.602;11.904;2022-08-19T07:06:14;100648.81;;;23.23;72.96
66090;BME280;53113;45.602;11.904;2022-08-19T07:08:44;100652.52;;;23.23;72.34
66090;BME280;53113;45.602;11.904;2022-08-19T07:11:11;100655.96;;;23.21;72.16
66090;BME280;53113;45.602;11.904;2022-08-19T07:13:39;100652.75;;;23.18;71.79
66090;BME280;53113;45.602;11.904;2022-08-19T07:16:06;100650.23;;;23.17;72.00
66090;BME280;53113;45.602;11.904;2022-08-19T07:18:33;100644.41;;;23.16;71.84
66090;BME280;53113;45.602;11.904;2022-08-19T07:23:30;100635.46;;;23.12;71.49
66090;BME280;53113;45.602;11.904;2022-08-19T07:25:56;100647.20;;;23.10;71.24
66090;BME280;53113;45.602;11.904;2022-08-19T07:28:22;100655.05;;;23.05;70.85
66090;BME280;53113;45.602;11.904;2022-08-19T07:30:49;100660.20;;;23.00;70.97
66090;BME280;53113;45.602;11.904;2022-08-19T07:33:16;100649.30;;;22.95;70.97
66090;BME280;53113;45.602;11.904;2022-08-19T07:35:43;100628.48;;;22.88;70.96
66090;BME280;53113;45.602;11.904;2022-08-19T07:38:09;100629.29;;;22.85;70.85
66090;BME280;53113;45.602;11.904;2022-08-19T07:40:35;100629.40;;;22.82;70.94
66090;BME280;53113;45.602;11.904;2022-08-19T07:43:02;100627.88;;;22.80;70.84
66090;BME280;53113;45.602;11.904;2022-08-19T07:45:28;100629.36;;;22.77;70.85
66090;BME280;53113;45.602;11.904;2022-08-19T07:47:54;100635.10;;;22.75;71.13
66090;BME280;53113;45.602;11.904;2022-08-19T07:50:21;100641.63;;;22.72;71.19
66090;BME280;53113;45.602;11.904;2022-08-19T07:52:48;100653.29;;;22.69;71.13
66090;BME280;53113;45.602;11.904;2022-08-19T07:55:18;100663.52;;;22.67;71.58
66090;BME280;53113;45.602;11.904;2022-08-19T07:57:44;100665.18;;;22.65;71.77
66090;BME280;53113;45.602;11.904;2022-08-19T08:00:10;100667.14;;;22.67;71.88
66090;BME280;53113;45.602;11.904;2022-08-19T08:02:36;100671.36;;;22.68;71.75
66090;BME280;53113;45.602;11.904;2022-08-19T08:05:03;100678.44;;;22.69;71.77
66090;BME280;53113;45.602;11.904;2022-08-19T08:07:48;100681.52;;;22.69;72.17
66090;BME280;53113;45.602;11.904;2022-08-19T08:10:32;100687.64;;;22.67;72.18
66090;BME280;53113;45.602;11.904;2022-08-19T08:12:58;100684.39;;;22.66;71.96
66090;BME280;53113;45.602;11.904;2022-08-19T08:15:25;100682.34;;;22.66;72.11
66090;BME280;53113;45.602;11.904;2022-08-19T08:17:51;100684.11;;;22.68;72.28
66090;BME280;53113;45.602;11.904;2022-08-19T08:20:19;100684.48;;;22.70;72.19
66090;BME280;53113;45.602;11.904;2022-08-19T08:22:46;100685.13;;;22.72;72.17
66090;BME280;53113;45.602;11.904;2022-08-19T08:25:31;100683.93;;;22.73;72.42
66090;BME280;53113;45.602;11.904;2022-08-19T08:27:58;100679.48;;;22.73;72.34
66090;BME280;53113;45.602;11.904;2022-08-19T08:30:28;100672.98;;;22.74;72.39
66090;BME280;53113;45.602;11.904;2022-08-19T08:32:55;100667.20;;;22.75;72.48
66090;BME280;53113;45.602;11.904;2022-08-19T08:35:23;100666.71;;;22.77;72.66
66090;BME280;53113;45.602;11.904;2022-08-19T08:37:53;100668.61;;;22.79;72.59
66090;BME280;53113;45.602;11.904;2022-08-19T08:45:44;100751.05;;;22.78;72.18
66090;BME280;53113;45.602;11.904;2022-08-19T08:48:27;100774.52;;;22.75;72.11
66090;BME280;53113;45.602;11.904;2022-08-19T08:50:58;100766.96;;;22.72;71.67
66090;BME280;53113;45.602;11.904;2022-08-19T08:53:26;100723.54;;;22.69;71.18
66090;BME280;53113;45.602;11.904;2022-08-19T08:55:53;100715.56;;;22.66;70.65
66090;BME280;53113;45.602;11.904;2022-08-19T08:58:30;100737.23;;;22.63;70.61
66090;BME280;53113;45.602;11.904;2022-08-19T09:00:58;100746.30;;;22.62;70.60
66090;BME280;53113;45.602;11.904;2022-08-19T09:03:28;100741.05;;;22.61;70.84
66090;BME280;53113;45.602;11.904;2022-08-19T09:06:04;100729.77;;;22.60;70.79
66090;BME280;53113;45.602;11.904;2022-08-19T09:14:06;100715.64;;;22.64;70.91
66090;BME280;53113;45.602;11.904;2022-08-19T09:16:34;100739.60;;;22.73;71.12
66090;BME280;53113;45.602;11.904;2022-08-19T09:19:04;100747.67;;;22.82;71.22
66090;BME280;53113;45.602;11.904;2022-08-19T09:21:31;100735.17;;;22.91;71.24
66090;BME280;53113;45.602;11.904;2022-08-19T09:23:58;100716.09;;;23.01;71.36
66090;BME280;53113;45.602;11.904;2022-08-19T09:26:26;100714.21;;;23.11;71.22
66090;BME280;53113;45.602;11.904;2022-08-19T09:28:53;100716.86;;;23.22;71.01
66090;BME280;53113;45.602;11.904;2022-08-19T09:31:23;100712.35;;;23.34;70.62
66090;BME280;53113;45.602;11.904;2022-08-19T09:33:52;100705.02;;;23.44;70.15
66090;BME280;53113;45.602;11.904;2022-08-19T09:36:20;100699.39;;;23.54;70.17
66090;BME280;53113;45.602;11.904;2022-08-19T09:38:48;100697.75;;;23.66;69.78
66090;BME280;53113;45.602;11.904;2022-08-19T09:41:17;100683.52;;;23.79;69.18
66090;BME280;53113;45.602;11.904;2022-08-19T09:43:48;100678.81;;;23.92;68.98
66090;BME280;53113;45.602;11.904;2022-08-19T09:46:19;100669.59;;;24.03;68.47
66090;BME280;53113;45.602;11.904;2022-08-19T09:48:47;100664.30;;;24.13;68.14
66090;BME280;53113;45.602;11.904;2022-08-19T09:51:23;100664.63;;;24.22;67.70
66090;BME280;53113;45.602;11.904;2022-08-19T09:53:52;100671.66;;;24.31;67.45
66090;BME280;53113;45.602;11.904;2022-08-19T09:56:22;100672.32;;;24.38;67.42
66090;BME280;53113;45.602;11.904;2022-08-19T09:58:48;100670.29;;;24.43;66.66
66090;BME280;53113;45.602;11.904;2022-08-19T10:01:19;100674.82;;;24.49;66.42
66090;BME280;53113;45.602;11.904;2022-08-19T10:03:56;100671.23;;;24.52;66.30
66090;BME280;53113;45.602;11.904;2022-08-19T10:06:25;100668.27;;;24.57;66.02
66090;BME280;53113;45.602;11.904;2022-08-19T10:08:56;100666.77;;;24.59;65.34
66090;BME280;53113;45.602;11.904;2022-08-19T10:11:21;100664.75;;;24.60;65.16
66090;BME280;53113;45.602;11.904;2022-08-19T10:13:47;100663.11;;;24.62;65.29
66090;BME280;53113;45.602;11.904;2022-08-19T10:16:17;100664.16;;;24.65;65.41
66090;BME280;53113;45.602;11.904;2022-08-19T10:18:44;100664.98;;;24.68;65.09
66090;BME280;53113;45.602;11.904;2022-08-19T10:21:28;100665.88;;;24.71;64.35
66090;BME280;53113;45.602;11.904;2022-08-19T10:23:57;100660.84;;;24.76;63.72
66090;BME280;53113;45.602;11.904;2022-08-19T10:26:29;100657.80;;;24.81;63.36
66090;BME280;53113;45.602;11.904;2022-08-19T10:28:56;100659.08;;;24.85;62.96
66090;BME280;53113;45.602;11.904;2022-08-19T10:31:27;100659.66;;;24.88;62.52
66090;BME280;53113;45.602;11.904;2022-08-19T10:33:55;100658.02;;;24.91;62.40
66090;BME280;53113;45.602;11.904;2022-08-19T10:36:30;100657.85;;;24.95;62.40
66090;BME280;53113;45.602;11.904;2022-08-19T10:38:58;100658.92;;;24.99;61.99
66090;BME280;53113;45.602;11.904;2022-08-19T10:41:26;100663.52;;;25.04;62.04
66090;BME280;53113;45.602;11.904;2022-08-19T10:43:59;100665.45;;;25.12;61.91
66090;BME280;53113;45.602;11.904;2022-08-19T10:46:27;100663.48;;;25.17;61.69
66090;BME280;53113;45.602;11.904;2022-08-19T10:48:54;100666.83;;;25.22;61.48
66090;BME280;53113;45.602;11.904;2022-08-19T10:51:21;100670.87;;;25.28;61.06
66090;BME280;53113;45.602;11.904;2022-08-19T10:54:05;100669.01;;;25.31;60.66
66090;BME280;53113;45.602;11.904;2022-08-19T10:56:32;100661.13;;;25.34;60.26
66090;BME280;53113;45.602;11.904;2022-08-19T10:59:28;100659.27;;;25.39;59.99
66090;BME280;53113;45.602;11.904;2022-08-19T11:01:59;100652.64;;;25.47;60.12
66090;BME280;53113;45.602;11.904;2022-08-19T11:04:26;100643.18;;;25.57;60.45
66090;BME280;53113;45.602;11.904;2022-08-19T11:06:52;100643.27;;;25.69;60.29
66090;BME280;53113;45.602;11.904;2022-08-19T11:09:21;100643.92;;;25.81;59.91
66090;BME280;53113;45.602;11.904;2022-08-19T11:11:49;100642.63;;;25.93;59.44
66090;BME280;53113;45.602;11.904;2022-08-19T11:14:17;100641.73;;;26.06;59.29
66090;BME280;53113;45.602;11.904;2022-08-19T11:16:46;100640.21;;;26.19;59.27
66090;BME280;53113;45.602;11.904;2022-08-19T11:19:11;100636.35;;;26.32;59.25
66090;BME280;53113;45.602;11.904;2022-08-19T11:21:42;100644.52;;;26.47;59.11
66090;BME280;53113;45.602;11.904;2022-08-19T11:24:36;100644.27;;;26.62;58.58
66090;BME280;53113;45.602;11.904;2022-08-19T11:27:06;100648.34;;;26.79;58.47
66090;BME280;53113;45.602;11.904;2022-08-19T11:29:37;100654.93;;;26.94;58.35
66090;BME280;53113;45.602;11.904;2022-08-19T11:32:06;100658.28;;;27.05;57.85
66090;BME280;53113;45.602;11.904;2022-08-19T11:34:33;100653.52;;;27.15;57.37
66090;BME280;53113;45.602;11.904;2022-08-19T11:37:01;100654.20;;;27.20;56.79
66090;BME280;53113;45.602;11.904;2022-08-19T11:39:30;100662.23;;;27.26;56.36
66090;BME280;53113;45.602;11.904;2022-08-19T11:41:58;100669.69;;;27.27;56.14
66090;BME280;53113;45.602;11.904;2022-08-19T11:44:25;100674.57;;;27.26;56.04
66090;BME280;53113;45.602;11.904;2022-08-19T11:46:52;100677.39;;;27.24;55.74
66090;BME280;53113;45.602;11.904;2022-08-19T11:49:19;100676.90;;;27.19;55.52
66090;BME280;53113;45.602;11.904;2022-08-19T11:51:47;100676.88;;;27.11;55.30
66090;BME280;53113;45.602;11.904;2022-08-19T11:54:16;100678.22;;;27.03;55.51
66090;BME280;53113;45.602;11.904;2022-08-19T11:56:43;100676.82;;;26.98;55.55
66090;BME280;53113;45.602;11.904;2022-08-19T11:59:10;100676.05;;;26.93;55.31
66090;BME280;53113;45.602;11.904;2022-08-19T12:01:36;100679.13;;;26.90;55.19
66090;BME280;53113;45.602;11.904;2022-08-19T12:04:02;100680.08;;;26.87;54.99
66090;BME280;53113;45.602;11.904;2022-08-19T12:06:32;100678.84;;;26.87;55.15
66090;BME280;53113;45.602;11.904;2022-08-19T12:09:03;100675.09;;;26.90;55.19
66090;BME280;53113;45.602;11.904;2022-08-19T12:11:30;100670.45;;;26.97;55.33
66090;BME280;53113;45.602;11.904;2022-08-19T12:13:56;100669.39;;;27.07;55.04
66090;BME280;53113;45.602;11.904;2022-08-19T12:16:27;100663.98;;;27.17;54.96
66090;BME280;53113;45.602;11.904;2022-08-19T12:18:54;100661.95;;;27.35;55.08
66090;BME280;53113;45.602;11.904;2022-08-19T12:21:24;100664.16;;;27.53;55.24
66090;BME280;53113;45.602;11.904;2022-08-19T12:23:54;100668.33;;;27.71;54.78
66090;BME280;53113;45.602;11.904;2022-08-19T12:26:20;100667.63;;;27.87;54.67
66090;BME280;53113;45.602;11.904;2022-08-19T12:28:46;100670.21;;;28.00;54.17
66090;BME280;53113;45.602;11.904;2022-08-19T12:31:14;100674.12;;;28.10;53.76
66090;BME280;53113;45.602;11.904;2022-08-19T12:33:41;100673.91;;;28.19;53.56
66090;BME280;53113;45.602;11.904;2022-08-19T12:36:10;100673.07;;;28.24;53.55
66090;BME280;53113;45.602;11.904;2022-08-19T12:38:38;100664.73;;;28.30;53.27
66090;BME280;53113;45.602;11.904;2022-08-19T12:41:05;100666.20;;;28.36;53.06
66090;BME280;53113;45.602;11.904;2022-08-19T12:43:36;100661.48;;;28.42;52.88
66090;BME280;53113;45.602;11.904;2022-08-19T12:46:04;100661.95;;;28.51;52.97
66090;BME280;53113;45.602;11.904;2022-08-19T12:48:31;100654.10;;;28.60;52.98
66090;BME280;53113;45.602;11.904;2022-08-19T12:50:57;100652.85;;;28.75;52.91
66090;BME280;53113;45.602;11.904;2022-08-19T12:53:23;100648.44;;;28.93;52.62
66090;BME280;53113;45.602;11.904;2022-08-19T12:55:57;100647.65;;;29.14;52.11
66090;BME280;53113;45.602;11.904;2022-08-19T12:58:26;100643.55;;;29.35;51.62
66090;BME280;53113;45.602;11.904;2022-08-19T13:00:54;100642.49;;;29.53;50.38
66090;BME280;53113;45.602;11.904;2022-08-19T13:03:19;100648.46;;;29.67;49.75
66090;BME280;53113;45.602;11.904;2022-08-19T13:05:47;100651.23;;;29.80;49.37